Sunday, April 20, 2014
23:29 UTC
  |  Log In   |  Register Free
Airport Search:

Norwood Memorial Airport
(KOWD)

FAA data valid effective April 3, 2014 until May 29, 2014 (unless otherwise noted).

 
 
 
 
 
 
 
 
 
 
 
 
 
 

Current Aviation Weather for Norwood Memorial Airport (KOWD)

The most recent METAR observation for KOWD was updated at: 2253 UTC
METAR Summary (Translated METAR)
KOWD
202253Z 05005KT 10SM CLR 09/M03 A3040 RMK AO2 SLP296 T00941028
KBOS
(12.7 nm NE from KOWD)
202254Z 11012KT 10SM FEW220 OVC250 06/00 A3043 RMK AO2 SLP304 T00610000
TAF Summary (Translated TAF)
KBOS
(12.7 nm NE from KOWD)
202035Z 2021/2124 12010KT P6SM BKN250 FM210300 18005KT P6SM SKC FM211600 14006KT P6SM SKC
KBED
(17.5 nm NW from KOWD)
202035Z 2021/2118 13007KT P6SM BKN250 FM210300 VRB03KT P6SM SKC
  Airport Weather Conditions for KOWD

 Current Weather at OWD
49° F
Fair
Northeast winds at 5.8 mph
OWD NOAA Radar

Pressure: 30.40 in
Humidity: 43%
Wind: Northeast at 5.8 MPH (5 KT)
Dew Point: 27.0°F
Visibility: 10.00 mi


Airport Weather Forecast for KOWD

Translated METAR and TAF for KOWD
Translated METAR for KOWD (2329 UTC 20 April 2014)
found at http://aviationweather.gov/adds/metars/
 
METAR text: KOWD 202253Z 05005KT 10SM CLR 09/M03 A3040 RMK AO2 SLP296 T00941028
Conditions at: KOWD (NORWOOD , MA, US) observed 2253 UTC 20 April 2014
Temperature: 9.4°C (49°F)
Dewpoint: -2.8°C (27°F) [RH = 42%]
Pressure (altimeter): 30.40 inches Hg (1029.5 mb)
[Sea-level pressure: 1029.6 mb]
Winds: from the NE (50 degrees) at 6 MPH (5 knots; 2.6 m/s)
Visibility: 10 or more miles (16+ km)
Ceiling: at least 12,000 feet AGL
Clouds: sky clear below 12,000 feet AGL
Weather: no significant weather observed at this time
Translated TAF for KOWD

There is no translated TAF available for this airport

Find All Airport Services Find A Hotel Find A Rental Car Find A Golf Course Find A Restaurant $100 Hamburger



FBO's on the Field
FBO Company Facility Photos Services Transportation Aviation Fuel Prices: Prices include tax
Catering Weather Repair Courtesy Rental Type 100LL JetA JetA+ MOGAS 8087
 
FlightLevel Aviation

Currently rated 1 by 1 person
FS:Shell
Last Updated: Apr-09
Login to update fuel prices
SS:
Contact FlightLevel AviationMore FBO Information
 
Add another FBO Facility Photos Catering Weather Repair Courtesy Rental Type 100LL JetA JetA+ MOGAS 8087
Services Transportation Aviation Fuel Prices: Prices include tax


GlobalAir.com Airport Resource Center model-print
model-print
model-print
model-print